Time;durP1;ratioP1;P1;durP2;ratioP2;P2;SDS_P1;SDS_P2;PMS_P1;PMS_P2;Temp;Humidity;BMP_temperature;BMP_pressure;BME280_temperature;BME280_humidity;BME280_pressure;Samples;Min_cycle;Max_cycle;Signal;HPM_P1;HPM_P2
2023/10/01 00:01:56;;;;;;;5.10;0.90;;;;;;;11.78;92.81;100037.39;106648;1271;22553;-58
2023/10/01 00:04:25;;;;;;;6.70;1.80;;;;;;;11.75;92.93;100042.05;106468;1272;99539;-58
2023/10/01 00:06:54;;;;;;;2.70;1.00;;;;;;;11.76;93.30;100050.22;106531;1271;22545;-58
2023/10/01 00:09:23;;;;;;;2.60;0.90;;;;;;;11.78;93.62;100052.58;106659;1272;98518;-58
2023/10/01 00:11:51;;;;;;;3.20;1.20;;;;;;;11.80;93.51;100045.33;106679;1271;25503;-58
2023/10/01 00:14:21;;;;;;;4.20;0.80;;;;;;;11.76;93.67;100040.95;106472;1273;22526;-57
2023/10/01 00:16:55;;;;;;;4.30;1.30;;;;;;;11.77;93.94;100037.63;106588;1271;22574;-58
2023/10/01 00:19:25;;;;;;;4.30;0.60;;;;;;;11.78;94.06;100034.23;106730;1273;25404;-58
2023/10/01 00:21:55;;;;;;;3.50;1.00;;;;;;;11.80;94.36;100038.84;107473;1272;99934;-57
2023/10/01 00:24:23;;;;;;;3.40;1.80;;;;;;;11.81;94.34;100047.52;107817;1270;22467;-58
2023/10/01 00:26:52;;;;;;;1.50;0.50;;;;;;;11.83;94.58;100044.11;106598;1256;99097;-58
2023/10/01 00:29:22;;;;;;;3.30;1.60;;;;;;;11.84;94.50;100037.96;106670;1271;25356;-57
2023/10/01 00:31:51;;;;;;;2.80;0.60;;;;;;;11.86;94.66;100027.27;106838;1271;22611;-57
2023/10/01 00:34:20;;;;;;;3.00;0.40;;;;;;;11.83;94.44;100030.67;106779;1270;99025;-57
2023/10/01 00:36:49;;;;;;;4.10;0.90;;;;;;;11.81;94.75;100040.39;110415;1271;22177;-58
2023/10/01 00:39:18;;;;;;;6.00;0.70;;;;;;;11.80;94.69;100040.44;110170;1270;100940;-58
2023/10/01 00:41:48;;;;;;;2.00;0.50;;;;;;;11.78;94.73;100045.07;107697;1271;22671;-58
2023/10/01 00:44:17;;;;;;;7.10;1.20;;;;;;;11.78;95.02;100043.28;106891;1255;22530;-58
2023/10/01 00:46:46;;;;;;;5.20;2.40;;;;;;;11.85;95.09;100043.19;106586;1271;99538;-57
2023/10/01 00:49:17;;;;;;;3.10;0.90;;;;;;;11.92;95.45;100036.26;106581;1271;22550;-57
2023/10/01 00:51:46;;;;;;;2.30;0.70;;;;;;;11.99;95.08;100035.21;106647;1271;99692;-58
2023/10/01 00:54:15;;;;;;;4.30;1.40;;;;;;;12.04;95.05;100029.55;106785;1276;25358;-58
2023/10/01 00:56:44;;;;;;;1.80;0.80;;;;;;;12.12;95.43;100030.41;106683;1272;99699;-58
2023/10/01 00:59:14;;;;;;;4.90;1.00;;;;;;;12.19;95.62;100035.27;106704;1271;22538;-58
2023/10/01 01:01:43;;;;;;;1.80;0.60;;;;;;;12.25;95.40;100036.02;106685;1272;22528;-58
2023/10/01 01:04:21;;;;;;;3.10;0.90;;;;;;;12.31;95.69;100031.55;106467;1271;99468;-57
2023/10/01 01:06:51;;;;;;;5.30;1.10;;;;;;;12.36;95.62;100026.75;106597;1272;22546;-57
2023/10/01 01:09:20;;;;;;;3.60;0.70;;;;;;;12.41;95.69;100025.98;106778;1271;100318;-58
2023/10/01 01:11:50;;;;;;;1.60;0.60;;;;;;;12.45;95.53;100026.87;106840;1271;22640;-58
2023/10/01 01:14:21;;;;;;;4.40;0.70;;;;;;;12.44;95.55;100023.23;106587;1271;22783;-58
2023/10/01 01:16:51;;;;;;;3.00;1.00;;;;;;;12.46;95.77;100023.98;106545;1271;98774;-57
2023/10/01 01:19:21;;;;;;;2.30;0.60;;;;;;;12.47;95.73;100019.77;106634;1271;24055;-57
2023/10/01 01:21:50;;;;;;;2.30;0.70;;;;;;;12.45;95.68;100018.27;106728;1271;100389;-58
2023/10/01 01:24:19;;;;;;;2.40;0.90;;;;;;;12.44;95.63;100017.83;107038;1271;22534;-57
2023/10/01 01:26:51;;;;;;;1.80;1.10;;;;;;;12.42;95.75;100010.06;106602;1271;99108;-58
2023/10/01 01:29:29;;;;;;;2.40;0.90;;;;;;;12.42;95.96;100005.91;106702;1264;25294;-58
2023/10/01 01:32:13;;;;;;;3.70;0.90;;;;;;;12.41;96.11;100006.45;106710;1271;25579;-58
2023/10/01 01:34:46;;;;;;;2.40;0.40;;;;;;;12.40;96.11;100008.77;106627;1271;99389;-58
2023/10/01 01:40:13;;;;;;;1.30;0.30;;;;;;;12.33;96.17;100020.12;106582;1271;98858;-58
2023/10/01 01:42:42;;;;;;;2.60;0.60;;;;;;;12.29;96.20;100014.34;106664;1271;22531;-58
2023/10/01 01:45:19;;;;;;;4.00;1.10;;;;;;;12.25;96.41;100006.88;106701;1271;99931;-58
2023/10/01 01:47:48;;;;;;;2.70;1.00;;;;;;;12.18;96.31;100010.02;106689;1271;22545;-58
2023/10/01 01:50:26;;;;;;;3.30;0.80;;;;;;;12.12;96.43;100014.00;106658;1271;22572;-58
2023/10/01 01:53:03;;;;;;;4.20;1.00;;;;;;;12.07;96.59;100016.34;106887;1270;22537;-59
2023/10/01 01:55:34;;;;;;;2.30;0.50;;;;;;;12.04;97.02;100008.11;106725;1271;26769;-58
2023/10/01 01:58:15;;;;;;;2.00;0.70;;;;;;;12.06;97.59;100010.77;106570;1271;98906;-58
2023/10/01 02:01:00;;;;;;;1.50;0.70;;;;;;;12.09;97.63;100011.52;106965;1271;24359;-58
2023/10/01 02:03:34;;;;;;;2.50;0.70;;;;;;;12.10;97.62;100011.13;106595;1271;99552;-55
2023/10/01 02:06:06;;;;;;;3.20;0.70;;;;;;;12.07;97.93;100013.70;106706;1273;22561;-56
2023/10/01 02:08:54;;;;;;;3.00;0.90;;;;;;;12.06;98.03;100011.64;106665;1271;99112;-55
2023/10/01 02:11:23;;;;;;;1.80;0.60;;;;;;;12.09;98.10;100011.88;106577;1271;22877;-56
2023/10/01 02:13:55;;;;;;;6.10;0.70;;;;;;;12.09;98.42;100010.63;106810;1271;22652;-57
2023/10/01 02:19:11;;;;;;;2.90;0.70;;;;;;;12.15;98.72;100013.30;106790;1272;23917;-56
2023/10/01 02:21:49;;;;;;;6.30;0.70;;;;;;;12.18;98.90;100016.50;106568;1271;99621;-58
2023/10/01 02:24:23;;;;;;;1.60;0.50;;;;;;;12.15;98.80;100010.33;107207;1261;23858;-58
2023/10/01 02:26:58;;;;;;;3.90;0.90;;;;;;;12.15;99.02;100006.86;106543;1271;99198;-58
2023/10/01 02:29:31;;;;;;;1.80;0.60;;;;;;;12.20;99.32;100007.64;106512;1264;22523;-58
2023/10/01 02:32:04;;;;;;;2.50;1.10;;;;;;;12.25;99.39;100005.45;106598;1272;24236;-58
2023/10/01 02:34:34;;;;;;;4.50;1.20;;;;;;;12.27;99.28;99995.61;106911;1271;99562;-58
2023/10/01 02:37:05;;;;;;;1.90;0.40;;;;;;;12.28;99.17;100002.03;106626;1271;24374;-58
2023/10/01 02:39:37;;;;;;;2.40;0.70;;;;;;;12.28;99.36;100002.35;106627;1271;98903;-58
2023/10/01 02:44:40;;;;;;;1.70;0.80;;;;;;;12.30;99.48;99984.09;106533;1271;100187;-57
2023/10/01 02:47:16;;;;;;;4.00;1.10;;;;;;;12.30;99.45;99983.23;106755;1275;23940;-58
2023/10/01 02:49:50;;;;;;;2.80;0.80;;;;;;;12.30;99.63;99980.09;106631;1269;24295;-58
2023/10/01 02:52:36;;;;;;;2.60;0.80;;;;;;;12.31;99.69;99983.71;106601;1274;99422;-57
2023/10/01 02:55:19;;;;;;;1.80;0.60;;;;;;;12.23;99.24;99994.95;107100;1270;24259;-57
2023/10/01 02:57:50;;;;;;;3.70;1.10;;;;;;;12.14;99.34;99993.83;106749;1271;98726;-57
2023/10/01 03:02:51;;;;;;;6.50;2.10;;;;;;;12.01;99.42;99997.95;106551;1271;99431;-58
2023/10/01 03:08:12;;;;;;;2.50;0.70;;;;;;;11.93;99.92;99992.59;106882;1273;26197;-57
2023/10/01 03:10:44;;;;;;;3.10;0.80;;;;;;;11.94;99.87;99989.91;106645;1270;98770;-57
2023/10/01 03:13:16;;;;;;;3.50;0.60;;;;;;;11.91;99.71;99984.48;106776;1271;22534;-57
2023/10/01 03:16:39;;;;;;;2.40;0.90;;;;;;;11.83;99.74;99981.14;106620;1272;99340;-57
2023/10/01 03:18:34;;;;;;;2.30;0.60;;;;;;;11.79;99.92;99982.22;106724;1273;25305;-57
2023/10/01 03:21:07;;;;;;;2.80;0.90;;;;;;;11.79;99.87;99977.51;106448;1272;99482;-57
2023/10/01 03:23:36;;;;;;;6.00;1.40;;;;;;;11.76;99.79;99975.07;106701;1270;24215;-57
2023/10/01 03:26:08;;;;;;;1.80;0.80;;;;;;;11.70;99.84;99974.98;106724;1271;25236;-57
2023/10/01 03:31:29;;;;;;;3.70;1.00;;;;;;;11.60;100.00;99970.75;106695;1271;24268;-57
2023/10/01 03:33:58;;;;;;;1.80;0.40;;;;;;;11.56;100.00;99964.17;106585;1270;99924;-57
2023/10/01 03:36:32;;;;;;;2.80;1.20;;;;;;;11.47;100.00;99968.04;106617;1271;25293;-57
2023/10/01 03:39:25;;;;;;;5.00;0.90;;;;;;;11.41;100.00;99969.36;106583;1267;100164;-57
2023/10/01 03:41:52;;;;;;;6.40;1.60;;;;;;;11.38;100.00;99969.18;106644;1271;25286;-57
2023/10/01 03:47:09;;;;;;;5.00;1.30;;;;;;;11.40;100.00;99971.48;106651;1270;25454;-57
2023/10/01 03:49:43;;;;;;;5.30;1.70;;;;;;;11.44;100.00;99972.72;106532;1269;22545;-57
2023/10/01 03:52:20;;;;;;;7.90;1.10;;;;;;;11.48;100.00;99976.92;106733;1274;98957;-58
2023/10/01 03:55:00;;;;;;;4.40;0.90;;;;;;;11.53;100.00;99973.71;106675;1270;25364;-57
2023/10/01 03:57:30;;;;;;;0.90;0.60;;;;;;;11.59;100.00;99968.02;106655;1271;99631;-58
2023/10/01 04:00:09;;;;;;;4.30;0.90;;;;;;;11.63;100.00;99966.98;106568;1271;23419;-57
2023/10/01 04:02:46;;;;;;;2.60;0.50;;;;;;;11.65;100.00;99964.06;106703;1271;99205;-57
2023/10/01 04:05:22;;;;;;;4.10;0.60;;;;;;;11.67;100.00;99966.23;106603;1271;25409;-57
2023/10/01 04:07:51;;;;;;;4.40;1.80;;;;;;;11.68;100.00;99965.34;107011;1271;25248;-55
2023/10/01 04:13:00;;;;;;;1.90;0.70;;;;;;;11.70;100.00;99962.24;106717;1271;22520;-57
2023/10/01 04:15:29;;;;;;;3.50;0.90;;;;;;;11.73;100.00;99964.91;106762;1271;99502;-57
2023/10/01 04:23:47;;;;;;;6.40;1.70;;;;;;;11.72;100.00;99964.07;106499;1271;22523;-57
2023/10/01 04:26:17;;;;;;;6.20;0.90;;;;;;;11.70;100.00;99964.50;106613;1270;25369;-57
2023/10/01 04:28:50;;;;;;;1.10;0.40;;;;;;;11.70;100.00;99968.52;106513;1271;99562;-57
2023/10/01 04:31:42;;;;;;;2.70;1.10;;;;;;;11.70;100.00;99970.98;106875;1271;24276;-58
2023/10/01 04:34:11;;;;;;;2.60;0.60;;;;;;;11.69;100.00;99967.56;106731;1270;99098;-58
2023/10/01 04:36:44;;;;;;;6.30;1.20;;;;;;;11.70;100.00;99966.63;106564;1271;25073;-57
2023/10/01 04:39:13;;;;;;;3.20;0.70;;;;;;;11.69;100.00;99965.09;106565;1274;100097;-57
2023/10/01 04:41:41;;;;;;;3.20;0.80;;;;;;;11.69;100.00;99964.06;106553;1271;22783;-57
2023/10/01 04:44:13;;;;;;;3.40;0.70;;;;;;;11.71;100.00;99955.42;106595;1278;25254;-57
2023/10/01 04:46:45;;;;;;;2.00;1.00;;;;;;;11.70;100.00;99954.77;106560;1271;99957;-57
2023/10/01 04:49:27;;;;;;;3.20;0.70;;;;;;;11.70;100.00;99956.31;106585;1271;25302;-58
2023/10/01 04:52:10;;;;;;;1.90;0.50;;;;;;;11.71;100.00;99961.36;106810;1276;99518;-57
2023/10/01 04:54:44;;;;;;;2.90;1.10;;;;;;;11.72;100.00;99966.84;106562;1274;24220;-57
2023/10/01 04:57:14;;;;;;;2.80;0.60;;;;;;;11.74;100.00;99970.45;106608;1271;99010;-58
2023/10/01 04:59:56;;;;;;;1.70;0.50;;;;;;;11.77;100.00;99973.77;106512;1272;22635;-57
2023/10/01 05:02:29;;;;;;;4.40;0.70;;;;;;;11.83;100.00;99975.22;107104;1271;22530;-58
2023/10/01 05:05:09;;;;;;;4.30;0.80;;;;;;;11.87;100.00;99979.42;106987;1271;99816;-51
2023/10/01 05:07:39;;;;;;;3.60;0.60;;;;;;;11.89;100.00;99979.56;106563;1271;25559;-52
2023/10/01 05:10:09;;;;;;;2.40;0.70;;;;;;;11.89;100.00;99977.13;106593;1270;98915;-53
2023/10/01 05:12:43;;;;;;;1.50;0.60;;;;;;;11.94;100.00;99982.44;106706;1270;22771;-53
2023/10/01 05:15:25;;;;;;;5.70;0.80;;;;;;;12.00;100.00;99984.76;106623;1271;99730;-49
2023/10/01 05:17:55;;;;;;;4.60;1.20;;;;;;;12.03;100.00;99985.09;106638;1271;24220;-52
2023/10/01 05:20:25;;;;;;;6.80;1.80;;;;;;;12.06;100.00;99987.23;107852;1276;22540;-53
2023/10/01 05:22:57;;;;;;;1.10;0.70;;;;;;;12.06;100.00;99987.05;109456;1271;99232;-53
2023/10/01 05:25:26;;;;;;;3.60;0.70;;;;;;;12.06;100.00;99990.19;108518;1272;22563;-52
2023/10/01 05:27:56;;;;;;;2.20;0.60;;;;;;;12.08;100.00;99989.91;106419;1274;100598;-51
2023/10/01 05:30:42;;;;;;;3.50;0.80;;;;;;;12.07;100.00;99989.27;106367;1270;22648;-51
2023/10/01 05:33:11;;;;;;;3.20;0.70;;;;;;;12.04;100.00;99990.80;106413;1270;99059;-50
2023/10/01 05:35:44;;;;;;;3.80;0.70;;;;;;;12.10;100.00;99996.48;106722;1271;26514;-52
2023/10/01 05:38:16;;;;;;;2.60;0.50;;;;;;;12.12;100.00;99999.66;110306;1271;22427;-52
2023/10/01 05:40:45;;;;;;;1.90;0.50;;;;;;;12.13;100.00;99994.58;106410;1271;99762;-51
2023/10/01 05:43:14;;;;;;;4.70;0.70;;;;;;;12.22;100.00;99991.52;106751;1271;22534;-52
2023/10/01 05:45:52;;;;;;;2.60;0.90;;;;;;;12.32;100.00;99991.70;106681;1271;101387;-52
2023/10/01 05:48:23;;;;;;;2.90;0.80;;;;;;;12.37;100.00;99993.93;106809;1271;22756;-51
2023/10/01 05:50:53;;;;;;;2.20;1.10;;;;;;;12.49;100.00;99990.86;106873;1271;100034;-52
2023/10/01 05:53:21;;;;;;;3.60;0.90;;;;;;;12.64;100.00;99992.15;106632;1271;22562;-54
2023/10/01 05:55:50;;;;;;;2.20;0.60;;;;;;;12.76;100.00;99995.20;106720;1271;22552;-53
2023/10/01 05:58:21;;;;;;;2.40;0.60;;;;;;;12.87;100.00;99990.80;106792;1271;99275;-54
2023/10/01 06:00:57;;;;;;;2.60;0.80;;;;;;;12.95;100.00;99997.55;106531;1271;25464;-49
2023/10/01 06:03:26;;;;;;;5.70;1.10;;;;;;;13.00;100.00;100001.98;106926;1271;99447;-52
2023/10/01 06:05:58;;;;;;;3.90;0.60;;;;;;;13.05;100.00;100003.11;106560;1272;22571;-52
2023/10/01 06:08:44;;;;;;;4.70;0.90;;;;;;;13.05;100.00;99997.52;106681;1270;22520;-52
2023/10/01 06:11:15;;;;;;;2.30;0.50;;;;;;;13.11;100.00;99992.48;106833;1268;22527;-60
2023/10/01 06:13:51;;;;;;;4.50;0.70;;;;;;;13.18;100.00;99997.34;106584;1258;219372;-59
2023/10/01 06:16:23;;;;;;;2.90;0.90;;;;;;;13.22;100.00;100006.25;106645;1271;99038;-55
2023/10/01 06:18:56;;;;;;;2.60;1.20;;;;;;;13.29;100.00;100008.16;106688;1271;22618;-59
2023/10/01 06:21:32;;;;;;;2.70;1.00;;;;;;;13.37;100.00;100014.91;106999;1271;99313;-56
2023/10/01 06:24:07;;;;;;;1.50;0.70;;;;;;;13.42;100.00;100013.58;106587;1271;25432;-56
2023/10/01 06:26:50;;;;;;;2.30;0.60;;;;;;;13.59;100.00;100014.03;106866;1273;23958;-59
2023/10/01 06:29:19;;;;;;;3.50;0.90;;;;;;;13.71;100.00;100019.90;106598;1271;22635;-59
2023/10/01 06:31:48;;;;;;;2.10;0.90;;;;;;;13.77;100.00;100023.39;106578;1266;22529;-57
2023/10/01 06:34:23;;;;;;;3.80;1.10;;;;;;;13.84;100.00;100027.40;106692;1268;99121;-60
2023/10/01 06:36:58;;;;;;;4.00;0.60;;;;;;;13.89;100.00;100022.90;106669;1272;25419;-58
2023/10/01 06:39:35;;;;;;;3.50;0.50;;;;;;;13.83;100.00;100020.97;106564;1274;99875;-57
2023/10/01 06:42:19;;;;;;;5.10;0.90;;;;;;;13.76;100.00;100020.66;106603;1271;22530;-62
2023/10/01 06:44:55;;;;;;;3.30;0.70;;;;;;;13.78;100.00;100023.69;106534;1271;99894;-58
2023/10/01 06:47:26;;;;;;;2.40;1.00;;;;;;;13.85;100.00;100022.45;106651;1271;22526;-62
2023/10/01 06:52:41;;;;;;;2.40;0.80;;;;;;;14.12;100.00;100029.27;106574;1267;100045;-58
2023/10/01 06:55:25;;;;;;;3.40;0.70;;;;;;;14.29;100.00;100028.31;106581;1271;25318;-57
2023/10/01 06:57:55;;;;;;;2.20;0.40;;;;;;;14.58;100.00;100025.08;106589;1270;100128;-57
2023/10/01 07:00:30;;;;;;;1.50;0.50;;;;;;;14.86;100.00;100026.55;106767;1271;23204;-57
2023/10/01 07:03:16;;;;;;;2.40;0.60;;;;;;;14.99;100.00;100029.29;106505;1270;99958;-58
2023/10/01 07:05:51;;;;;;;0.80;0.40;;;;;;;15.31;100.00;100028.39;106632;1273;22534;-58
2023/10/01 07:08:32;;;;;;;3.00;0.70;;;;;;;15.63;100.00;100021.10;106684;1274;25037;-59
2023/10/01 07:11:11;;;;;;;3.00;0.50;;;;;;;15.78;100.00;100027.70;106578;1271;99679;-58
2023/10/01 07:13:41;;;;;;;2.30;0.60;;;;;;;16.05;100.00;100023.73;106761;1271;22635;-59
2023/10/01 07:16:10;;;;;;;2.10;0.50;;;;;;;16.24;100.00;100029.98;106604;1271;99968;-61
2023/10/01 07:18:39;;;;;;;2.00;0.60;;;;;;;16.44;100.00;100034.17;106541;1271;22531;-57
2023/10/01 07:21:12;;;;;;;1.30;0.40;;;;;;;16.57;100.00;100037.86;106733;1271;100453;-56
2023/10/01 07:23:42;;;;;;;3.10;0.90;;;;;;;16.77;100.00;100043.52;106905;1274;22541;-54
2023/10/01 07:26:12;;;;;;;2.00;0.70;;;;;;;17.07;100.00;100047.48;106931;1271;25352;-61
2023/10/01 07:28:42;;;;;;;1.50;0.70;;;;;;;17.40;100.00;100051.91;106565;1270;99233;-57
2023/10/01 07:31:15;;;;;;;3.30;1.20;;;;;;;17.65;100.00;100048.48;106481;1277;25420;-58
2023/10/01 07:33:45;;;;;;;1.40;0.50;;;;;;;17.98;100.00;100053.05;107008;1270;100912;-59
2023/10/01 07:36:17;;;;;;;1.10;0.80;;;;;;;18.24;100.00;100052.02;106828;1271;22543;-59
2023/10/01 07:38:52;;;;;;;3.40;1.10;;;;;;;18.35;99.80;100053.11;107505;1274;22523;-58
2023/10/01 07:41:25;;;;;;;1.10;0.40;;;;;;;18.41;99.21;100048.48;107195;1272;25568;-59
2023/10/01 07:43:55;;;;;;;2.60;1.20;;;;;;;18.61;99.37;100045.39;106891;1272;25372;-58
2023/10/01 07:46:25;;;;;;;3.00;0.50;;;;;;;18.79;98.82;100046.68;106511;1272;99048;-58
2023/10/01 07:49:00;;;;;;;3.90;0.80;;;;;;;18.97;98.99;100047.23;106739;1270;22530;-57
2023/10/01 07:51:38;;;;;;;3.20;0.60;;;;;;;18.92;97.46;100055.75;106853;1269;99205;-57
2023/10/01 07:54:22;;;;;;;2.10;0.50;;;;;;;18.47;96.36;100061.21;106895;1274;22534;-57
2023/10/01 07:56:57;;;;;;;4.10;0.80;;;;;;;18.18;96.59;100066.92;107336;1271;99691;-57
2023/10/01 07:59:33;;;;;;;3.40;0.70;;;;;;;18.07;96.17;100072.82;109146;1272;25582;-57
2023/10/01 08:04:58;;;;;;;3.80;1.40;;;;;;;17.52;95.44;100076.73;106672;1271;99538;-58
2023/10/01 08:07:31;;;;;;;5.40;2.10;;;;;;;17.31;95.22;100076.11;106962;1269;25303;-57
2023/10/01 08:10:04;;;;;;;3.90;0.90;;;;;;;17.20;95.23;100079.30;106919;1274;99993;-58
2023/10/01 08:15:29;;;;;;;1.80;0.50;;;;;;;16.92;94.68;100086.73;107253;1271;99772;-58
2023/10/01 08:18:26;;;;;;;1.00;0.30;;;;;;;17.00;94.64;100089.98;106891;1267;22682;-58
2023/10/01 08:20:58;;;;;;;1.40;0.50;;;;;;;17.26;94.54;100090.52;106655;1271;22524;-58
2023/10/01 08:23:45;;;;;;;2.90;0.90;;;;;;;17.52;94.52;100086.02;106885;1275;22611;-57
2023/10/01 08:29:04;;;;;;;2.40;0.80;;;;;;;18.25;93.39;100080.33;106607;1272;99524;-58
2023/10/01 08:34:23;;;;;;;2.70;0.80;;;;;;;17.86;92.17;100085.48;108301;1271;99454;-58
2023/10/01 08:36:54;;;;;;;2.30;1.10;;;;;;;17.60;91.93;100084.10;106524;1277;22519;-57
2023/10/01 08:39:48;;;;;;;4.00;0.60;;;;;;;18.17;94.18;100088.84;110134;1276;99614;-57
2023/10/01 08:42:22;;;;;;;2.20;0.90;;;;;;;19.05;92.12;100082.98;110270;1273;22861;-57
2023/10/01 08:45:11;;;;;;;1.60;0.50;;;;;;;19.05;90.43;100082.77;110138;1272;23376;-57
2023/10/01 08:47:42;;;;;;;1.40;0.30;;;;;;;18.77;90.66;100084.59;110179;1269;22161;-58
2023/10/01 08:53:01;;;;;;;2.80;0.70;;;;;;;20.09;91.85;100073.71;106708;1265;99266;-56
2023/10/01 08:55:39;;;;;;;0.90;0.30;;;;;;;20.54;90.17;100078.90;107697;1271;25620;-59
2023/10/01 09:00:56;;;;;;;1.50;0.60;;;;;;;21.11;90.42;100082.89;107828;1270;24941;-56
2023/10/01 09:03:28;;;;;;;1.20;0.40;;;;;;;21.90;89.01;100078.01;107346;1275;100098;-57
2023/10/01 09:06:04;;;;;;;2.30;0.50;;;;;;;21.70;87.63;100080.83;106717;1271;22602;-56
2023/10/01 09:08:42;;;;;;;1.40;0.50;;;;;;;22.26;89.67;100079.96;107092;1271;22881;-57
2023/10/01 09:11:15;;;;;;;1.10;0.20;;;;;;;23.74;88.90;100073.58;106829;1273;99104;-57
2023/10/01 09:14:14;;;;;;;2.10;0.60;;;;;;;23.83;85.81;100076.46;107064;1271;25495;-58
2023/10/01 09:16:42;;;;;;;2.70;0.60;;;;;;;22.89;84.21;100076.89;107010;1278;98930;-57
2023/10/01 09:19:30;;;;;;;2.70;0.90;;;;;;;22.11;83.80;100076.71;106697;1266;24239;-57
2023/10/01 09:22:22;;;;;;;2.00;0.70;;;;;;;21.52;83.66;100082.08;106515;1274;99501;-59
2023/10/01 09:25:01;;;;;;;1.70;0.80;;;;;;;21.97;86.45;100082.34;106499;1277;22591;-58
2023/10/01 09:27:33;;;;;;;2.60;0.40;;;;;;;23.95;84.91;100077.24;107262;1271;99999;-58
2023/10/01 09:32:56;;;;;;;2.80;0.80;;;;;;;27.93;83.25;100074.79;106758;1272;22556;-58
2023/10/01 09:35:49;;;;;;;3.00;0.90;;;;;;;28.60;83.31;100077.85;106523;1271;99261;-58
2023/10/01 09:38:19;;;;;;;1.00;0.20;;;;;;;29.70;82.00;100084.45;106406;1274;24266;-58
2023/10/01 09:40:51;;;;;;;4.20;0.60;;;;;;;30.18;79.69;100084.29;106908;1271;99922;-58
2023/10/01 09:43:30;;;;;;;1.70;0.50;;;;;;;29.70;78.00;100087.46;106578;1271;26228;-57
2023/10/01 09:46:06;;;;;;;1.80;0.70;;;;;;;28.86;75.08;100092.67;106998;1270;99503;-58
2023/10/01 09:48:36;;;;;;;3.20;0.80;;;;;;;27.80;74.35;100090.02;106595;1268;22781;-57
2023/10/01 09:51:15;;;;;;;2.70;0.60;;;;;;;26.96;73.45;100088.05;109154;1273;101365;-59
2023/10/01 09:54:07;;;;;;;0.80;0.40;;;;;;;25.88;71.97;100088.66;106503;1272;22537;-59
2023/10/01 09:56:54;;;;;;;2.00;0.50;;;;;;;24.99;71.66;100090.40;106617;1277;22635;-57
2023/10/01 09:59:26;;;;;;;1.70;0.60;;;;;;;26.57;72.42;100078.77;106686;1274;98899;-57
2023/10/01 10:02:02;;;;;;;2.70;0.70;;;;;;;27.20;70.17;100081.35;107166;1272;24075;-58
2023/10/01 10:04:34;;;;;;;1.50;0.40;;;;;;;27.27;68.65;100074.02;106516;1271;99224;-57
2023/10/01 10:07:04;;;;;;;1.80;0.50;;;;;;;26.82;67.85;100072.69;106902;1276;24237;-58
2023/10/01 10:09:33;;;;;;;1.40;0.50;;;;;;;26.88;67.51;100074.36;107248;1265;100238;-58
2023/10/01 10:12:07;;;;;;;2.90;0.70;;;;;;;26.70;65.91;100075.81;106652;1271;25392;-58
2023/10/01 10:14:39;;;;;;;4.80;0.80;;;;;;;26.84;65.77;100074.77;107680;1271;25050;-59
2023/10/01 10:20:24;;;;;;;1.50;0.60;;;;;;;28.60;65.08;100072.90;106663;1272;22859;-59
2023/10/01 10:23:29;;;;;;;2.20;0.70;;;;;;;29.08;63.02;100072.91;106857;1271;99665;-59
2023/10/01 10:26:58;;;;;;;1.20;0.40;;;;;;;28.44;62.11;100077.50;106639;1271;22533;-59
2023/10/01 10:29:59;;;;;;;8.50;1.00;;;;;;;27.92;60.58;100071.23;106865;1276;100252;-59
2023/10/01 10:32:47;;;;;;;1.40;0.30;;;;;;;27.18;59.97;100069.27;106598;1261;22544;-57
2023/10/01 10:35:15;;;;;;;0.90;0.40;;;;;;;28.40;59.31;100069.69;110241;1276;101135;-58
2023/10/01 10:37:45;;;;;;;3.20;0.80;;;;;;;28.43;57.90;100074.71;110279;1272;22301;-58
2023/10/01 10:42:46;;;;;;;1.20;0.80;;;;;;;27.26;55.61;100078.47;106908;1274;25597;-54
2023/10/01 10:45:20;;;;;;;2.40;0.60;;;;;;;26.41;54.98;100086.55;106629;1270;100276;-53
2023/10/01 10:48:03;;;;;;;2.40;0.90;;;;;;;26.72;55.34;100084.69;106761;1275;22536;-54
2023/10/01 10:50:46;;;;;;;2.60;0.90;;;;;;;29.05;56.08;100083.66;107587;1272;25313;-53
2023/10/01 10:53:20;;;;;;;4.50;1.10;;;;;;;31.39;56.05;100081.80;106555;1272;99116;-56
2023/10/01 10:56:09;;;;;;;2.90;0.70;;;;;;;33.09;55.25;100081.34;106644;1272;25316;-57
2023/10/01 10:58:53;;;;;;;2.30;0.60;;;;;;;34.79;54.95;100081.38;106631;1274;99629;-57
2023/10/01 11:01:26;;;;;;;1.00;0.60;;;;;;;35.66;53.40;100078.91;106733;1272;25349;-55
2023/10/01 11:04:00;;;;;;;0.60;0.30;;;;;;;36.42;52.64;100078.36;106702;1271;99716;-56
2023/10/01 11:06:42;;;;;;;1.00;0.40;;;;;;;36.68;48.87;100081.84;107000;1272;24208;-53
2023/10/01 11:09:25;;;;;;;1.30;0.70;;;;;;;36.29;46.85;100080.69;106835;1271;99805;-52
2023/10/01 11:12:05;;;;;;;1.40;0.40;;;;;;;35.63;45.22;100081.16;106613;1271;24271;-56
2023/10/01 11:14:36;;;;;;;3.80;0.80;;;;;;;36.72;45.43;100081.38;106592;1267;22530;-57
2023/10/01 11:17:07;;;;;;;1.10;0.20;;;;;;;37.64;44.01;100084.02;106910;1272;99572;-57
2023/10/01 11:19:37;;;;;;;0.90;0.40;;;;;;;37.49;42.77;100083.03;106588;1276;25303;-57
2023/10/01 11:22:08;;;;;;;2.20;0.50;;;;;;;37.19;40.85;100081.08;106796;1278;99263;-58
2023/10/01 11:24:40;;;;;;;1.00;0.40;;;;;;;35.75;39.27;100084.27;106668;1270;25375;-58
2023/10/01 11:27:22;;;;;;;1.10;0.40;;;;;;;34.45;38.38;100084.20;106720;1271;100310;-54
2023/10/01 11:29:58;;;;;;;0.80;0.50;;;;;;;33.68;37.81;100081.52;106515;1273;22658;-57
2023/10/01 11:33:35;;;;;;;1.00;0.50;;;;;;;33.59;36.57;100082.58;106689;1272;25341;-58
2023/10/01 11:36:06;;;;;;;1.60;0.50;;;;;;;32.78;36.42;100076.44;106968;1278;25489;-57
2023/10/01 11:38:43;;;;;;;1.20;0.60;;;;;;;32.77;35.77;100076.69;106574;1272;22626;-58
2023/10/01 11:41:18;;;;;;;1.00;0.50;;;;;;;31.83;35.38;100073.09;106788;1278;99198;-54
2023/10/01 11:44:05;;;;;;;2.30;0.50;;;;;;;31.48;34.95;100068.50;106732;1272;25369;-56
2023/10/01 11:49:34;;;;;;;1.70;0.60;;;;;;;31.50;34.58;100062.48;106705;1277;25346;-51
2023/10/01 11:52:25;;;;;;;2.10;0.70;;;;;;;31.48;34.41;100062.99;106828;1273;99195;-57
2023/10/01 11:54:54;;;;;;;1.70;0.50;;;;;;;31.72;34.23;100072.75;106941;1273;22743;-56
2023/10/01 11:57:25;;;;;;;1.20;0.50;;;;;;;31.21;33.96;100074.98;106859;1271;99307;-56
2023/10/01 12:00:01;;;;;;;5.50;1.00;;;;;;;31.27;33.64;100080.48;107152;1270;24211;-64
2023/10/01 12:02:45;;;;;;;1.60;0.60;;;;;;;30.86;33.37;100083.95;109616;1276;22522;-54
2023/10/01 12:05:22;;;;;;;1.90;0.70;;;;;;;30.11;33.50;100087.48;107282;1270;99367;-59
2023/10/01 12:07:56;;;;;;;3.00;0.90;;;;;;;29.30;32.97;100085.91;107137;1271;22530;-58
2023/10/01 12:10:31;;;;;;;3.50;0.50;;;;;;;28.09;32.98;100088.23;107089;1269;101356;-58
2023/10/01 12:13:02;;;;;;;1.90;0.50;;;;;;;27.09;33.40;100086.42;106827;1273;22560;-57
2023/10/01 12:15:51;;;;;;;1.70;0.90;;;;;;;26.87;33.57;100085.15;106754;1273;99595;-58
2023/10/01 12:18:25;;;;;;;0.90;0.40;;;;;;;27.15;33.59;100086.95;108190;1274;23884;-58
2023/10/01 12:20:55;;;;;;;1.20;0.50;;;;;;;27.18;33.67;100076.64;107171;1271;25415;-56
2023/10/01 12:23:26;;;;;;;1.60;0.60;;;;;;;27.35;33.69;100078.04;106486;1274;99639;-57
2023/10/01 12:26:31;;;;;;;1.50;0.50;;;;;;;27.28;34.00;100068.42;107349;1274;25529;-62
2023/10/01 12:31:33;;;;;;;2.10;0.70;;;;;;;26.18;33.82;100083.86;106626;1272;25383;-57
2023/10/01 12:34:02;;;;;;;3.40;1.00;;;;;;;25.15;34.32;100090.00;106392;1271;100301;-52
2023/10/01 12:44:33;;;;;;;1.20;0.30;;;;;;;23.31;35.32;100081.95;106585;1278;22707;-58
2023/10/01 12:47:06;;;;;;;2.40;0.90;;;;;;;22.79;35.49;100084.17;106413;1272;100425;-59
2023/10/01 12:49:37;;;;;;;1.50;0.50;;;;;;;22.43;36.06;100084.63;106904;1271;22744;-59
2023/10/01 12:52:14;;;;;;;2.10;0.40;;;;;;;22.18;36.19;100084.41;106517;1275;99228;-59
2023/10/01 12:54:44;;;;;;;3.40;0.70;;;;;;;21.82;36.76;100086.34;106542;1270;25587;-59
2023/10/01 12:57:13;;;;;;;0.80;0.40;;;;;;;21.52;37.08;100085.67;106694;1273;22534;-58
2023/10/01 12:59:44;;;;;;;1.20;0.50;;;;;;;21.30;37.34;100087.69;106396;1271;99480;-59
2023/10/01 13:02:22;;;;;;;4.00;1.80;;;;;;;21.11;37.67;100087.34;106685;1275;22813;-59